Time;durP1;ratioP1;P1;durP2;ratioP2;P2;SDS_P1;SDS_P2;PMS_P1;PMS_P2;Temp;Humidity;BMP_temperature;BMP_pressure;BME280_temperature;BME280_humidity;BME280_pressure;Samples;Min_cycle;Max_cycle;Signal;HPM_P1;HPM_P2
2022/01/06 04:59:46;;;;;;;3.20;2.13;;;;;;;2.83;70.80;99709.78;6544983;26;19987;31
2022/01/06 05:02:49;;;;;;;2.90;2.58;;;;;;;2.77;71.34;99715.69;6578904;27;33703;-81
2022/01/06 05:05:52;;;;;;;4.07;2.60;;;;;;;2.86;71.64;99730.78;6579084;27;33987;-81
2022/01/06 05:08:55;;;;;;;2.78;2.40;;;;;;;2.80;72.05;99731.34;6582938;27;34359;-81
2022/01/06 05:11:58;;;;;;;7.25;2.60;;;;;;;2.76;72.00;99733.47;6578144;27;34488;-81
2022/01/06 05:15:01;;;;;;;3.70;2.33;;;;;;;2.84;72.34;99740.72;6578201;27;34781;-81
2022/01/06 05:18:04;;;;;;;3.70;2.95;;;;;;;2.83;72.41;99744.34;6578594;27;33913;-81
2022/01/06 05:21:08;;;;;;;4.05;2.60;;;;;;;2.77;72.72;99751.06;6580224;27;33698;-81
2022/01/06 05:24:14;;;;;;;5.85;2.37;;;;;;;2.81;72.43;99757.81;6578452;27;34028;-81
2022/01/06 05:27:16;;;;;;;6.47;2.55;;;;;;;2.75;73.22;99761.03;6578276;27;34503;-81
2022/01/06 05:30:20;;;;;;;3.65;2.70;;;;;;;2.76;73.40;99757.37;6578360;27;33604;-81
2022/01/06 05:33:24;;;;;;;5.25;2.47;;;;;;;2.66;72.61;99765.37;6578524;27;34176;-81
2022/01/06 05:36:27;;;;;;;4.87;2.55;;;;;;;2.62;73.17;99773.78;6578559;27;34794;-81
2022/01/06 05:39:30;;;;;;;5.00;2.83;;;;;;;2.62;73.70;99771.09;6578896;27;35399;-81
2022/01/06 05:42:32;;;;;;;4.87;2.83;;;;;;;2.53;73.95;99764.81;6578616;27;34854;-81
2022/01/06 05:45:35;;;;;;;2.75;2.47;;;;;;;2.63;73.65;99764.81;6579808;27;34117;-81
2022/01/06 05:48:38;;;;;;;7.07;2.60;;;;;;;2.57;73.16;99770.69;6578989;27;34960;-78
2022/01/06 05:51:41;;;;;;;5.07;3.22;;;;;;;2.54;74.32;99776.28;6578805;27;34337;-79
2022/01/06 05:54:43;;;;;;;4.15;2.75;;;;;;;2.56;73.32;99777.00;6578394;27;34658;-79
2022/01/06 05:57:47;;;;;;;4.80;3.17;;;;;;;2.55;74.47;99780.63;6578293;27;33973;-82
2022/01/06 06:00:50;;;;;;;4.30;2.87;;;;;;;2.55;74.62;99767.34;6586805;26;33680;-83
2022/01/06 06:03:55;;;;;;;7.10;2.70;;;;;;;2.61;73.78;99772.09;6604942;27;34534;-83
2022/01/06 06:06:57;;;;;;;8.98;3.28;;;;;;;2.53;74.37;99779.94;6604462;27;34862;-85
2022/01/06 06:10:00;;;;;;;7.28;3.35;;;;;;;2.52;74.22;99775.59;6605422;27;34017;-81
2022/01/06 06:13:04;;;;;;;5.60;2.90;;;;;;;2.48;74.04;99783.00;6606172;27;34240;-81
2022/01/06 06:16:07;;;;;;;5.37;3.20;;;;;;;2.40;74.34;99775.75;6605659;27;34784;-79
2022/01/06 06:19:10;;;;;;;4.37;3.30;;;;;;;2.42;74.77;99773.78;6606177;27;33657;-79
2022/01/06 06:22:13;;;;;;;6.62;3.35;;;;;;;2.43;74.67;99780.78;6608158;27;33724;-81
2022/01/06 06:25:15;;;;;;;8.15;3.50;;;;;;;2.45;75.34;99777.97;6606582;27;34574;-81
2022/01/06 06:28:18;;;;;;;8.02;3.17;;;;;;;2.44;75.07;99793.06;6605808;27;33590;-81
2022/01/06 06:31:20;;;;;;;7.43;3.37;;;;;;;2.47;74.91;99798.09;6605439;27;35076;-79
2022/01/06 06:34:23;;;;;;;8.02;3.28;;;;;;;2.56;74.58;99814.19;6604601;27;34050;-79
2022/01/06 06:37:26;;;;;;;5.90;3.22;;;;;;;2.50;75.03;99811.09;6605662;27;34332;-79
2022/01/06 06:40:29;;;;;;;6.93;3.60;;;;;;;2.49;74.54;99806.78;6604750;27;34171;-79
2022/01/06 06:43:32;;;;;;;5.12;3.30;;;;;;;2.53;75.22;99814.47;6605491;27;34048;-79
2022/01/06 06:46:35;;;;;;;13.48;4.87;;;;;;;2.53;74.87;99817.97;6605146;27;34017;-79
2022/01/06 06:49:38;;;;;;;6.80;3.40;;;;;;;2.50;74.69;99820.91;6604463;27;34574;-80
2022/01/06 06:52:41;;;;;;;5.57;3.60;;;;;;;2.57;75.17;99814.03;6606097;27;34774;-81
2022/01/06 06:55:44;;;;;;;6.18;3.58;;;;;;;2.54;75.70;99821.44;6596875;27;33780;-80
2022/01/06 06:58:47;;;;;;;8.95;3.35;;;;;;;2.64;75.05;99819.66;6607338;27;34061;-81
2022/01/06 07:01:50;;;;;;;6.20;3.30;;;;;;;2.67;75.42;99822.03;6609978;27;35507;-80
2022/01/06 07:04:52;;;;;;;8.45;3.83;;;;;;;2.61;75.85;99827.91;6605277;27;33953;-80
2022/01/06 07:07:56;;;;;;;7.30;4.10;;;;;;;2.58;76.29;99829.03;6620657;27;33426;-80
2022/01/06 07:10:58;;;;;;;6.40;3.72;;;;;;;2.56;76.00;99846.06;6620247;27;35448;-80
2022/01/06 07:14:01;;;;;;;7.60;3.70;;;;;;;2.63;76.50;99855.16;6614774;27;33669;-80
2022/01/06 07:17:04;;;;;;;7.65;3.45;;;;;;;2.72;75.49;99851.66;6606372;27;34357;-81
2022/01/06 07:20:08;;;;;;;8.05;3.78;;;;;;;2.68;75.83;99864.37;6604959;27;34714;-80
2022/01/06 07:23:11;;;;;;;7.95;3.80;;;;;;;2.76;75.86;99863.69;6605359;27;34406;-80
2022/01/06 07:26:13;;;;;;;14.15;4.15;;;;;;;2.82;75.62;99867.62;6605207;27;34880;-81
2022/01/06 07:29:16;;;;;;;6.80;4.07;;;;;;;2.76;76.33;99886.78;6604961;27;33760;-80
2022/01/06 07:32:19;;;;;;;6.00;3.70;;;;;;;2.77;75.23;99872.50;6605632;27;34901;-80
2022/01/06 07:35:23;;;;;;;6.78;3.70;;;;;;;2.88;75.40;99885.66;6605148;27;33821;-80
2022/01/06 07:38:25;;;;;;;5.15;4.12;;;;;;;2.88;75.56;99891.81;6605208;27;34002;-80
2022/01/06 07:41:28;;;;;;;8.43;3.90;;;;;;;2.87;75.08;99898.12;6605386;27;34127;-80
2022/01/06 07:44:31;;;;;;;5.97;3.70;;;;;;;2.88;75.47;99891.81;6605459;27;33890;-80
2022/01/06 07:47:36;;;;;;;7.22;3.90;;;;;;;2.97;75.00;99903.44;6604888;27;34801;-80
2022/01/06 07:50:39;;;;;;;9.15;3.78;;;;;;;3.03;74.71;99907.34;6605678;27;33635;-80
2022/01/06 07:53:42;;;;;;;7.07;4.00;;;;;;;3.04;74.31;99925.84;6605231;27;34840;-80
2022/01/06 07:56:44;;;;;;;6.50;3.55;;;;;;;3.08;74.39;99935.19;6605352;27;35560;-80
2022/01/06 07:59:47;;;;;;;7.90;3.75;;;;;;;3.19;74.27;99936.88;6604757;27;34086;-80
2022/01/06 08:02:50;;;;;;;8.55;3.45;;;;;;;3.28;73.89;99952.00;6605230;27;35361;-80
2022/01/06 08:05:56;;;;;;;8.48;3.97;;;;;;;3.31;74.23;99962.34;6605392;27;34106;-80
2022/01/06 08:08:59;;;;;;;9.73;3.70;;;;;;;3.32;73.70;99966.69;6603583;27;34800;-79
2022/01/06 08:12:02;;;;;;;5.12;3.70;;;;;;;3.40;73.83;99971.31;6604508;27;33856;-79
2022/01/06 08:15:05;;;;;;;6.45;3.40;;;;;;;3.63;73.50;99982.47;6604651;27;33566;-80
2022/01/06 08:18:09;;;;;;;8.27;3.78;;;;;;;3.66;72.68;99968.03;6604979;27;34718;-80
2022/01/06 08:21:11;;;;;;;4.93;3.42;;;;;;;3.79;73.32;99979.22;6604972;27;34635;-80
2022/01/06 08:24:14;;;;;;;7.65;3.55;;;;;;;3.87;71.98;99979.34;6604709;27;34040;-83
2022/01/06 08:27:17;;;;;;;8.60;4.10;;;;;;;3.87;71.64;99985.50;6604948;27;35467;-84
2022/01/06 08:30:20;;;;;;;7.85;3.20;;;;;;;4.01;71.74;99986.03;6605225;27;33940;-83
2022/01/06 08:33:23;;;;;;;5.28;3.42;;;;;;;4.01;71.62;99986.03;6604227;27;33814;-83
2022/01/06 08:36:26;;;;;;;9.38;3.40;;;;;;;4.00;70.87;99985.16;6605089;27;33881;-81
2022/01/06 08:39:28;;;;;;;6.07;3.60;;;;;;;4.00;71.54;99985.16;6605937;27;36001;-81
2022/01/06 08:42:31;;;;;;;5.82;3.50;;;;;;;4.10;70.82;99998.47;6606452;27;34097;-81
2022/01/06 08:45:34;;;;;;;5.72;3.22;;;;;;;4.25;70.47;99998.84;6607138;27;34076;-81
2022/01/06 08:48:37;;;;;;;8.00;3.65;;;;;;;4.11;70.14;100005.47;6607254;27;33786;-81
2022/01/06 08:51:40;;;;;;;7.32;3.20;;;;;;;4.06;70.75;100013.87;6607202;27;33871;-82
2022/01/06 08:54:42;;;;;;;8.90;3.60;;;;;;;4.00;70.56;100014.47;6607117;27;34688;-80
2022/01/06 08:57:45;;;;;;;5.62;2.87;;;;;;;3.99;70.46;100017.28;6606842;27;34019;-81
2022/01/06 09:00:50;;;;;;;7.55;3.22;;;;;;;4.00;70.33;100030.44;6606339;27;34763;-81
2022/01/06 09:03:53;;;;;;;6.97;3.20;;;;;;;4.03;70.67;100030.16;6606373;27;34515;-81
2022/01/06 09:06:58;;;;;;;8.25;3.70;;;;;;;3.89;71.65;100029.78;6614474;27;33430;-81
2022/01/06 09:10:01;;;;;;;5.72;3.20;;;;;;;3.89;71.49;100024.44;6607524;27;33943;-81
2022/01/06 09:13:04;;;;;;;7.22;3.25;;;;;;;3.98;70.53;100028.91;6606394;27;33900;-80
2022/01/06 09:16:08;;;;;;;4.20;2.90;;;;;;;4.03;70.55;100042.62;6604934;27;35447;-81
2022/01/06 09:19:11;;;;;;;5.55;3.20;;;;;;;3.97;71.25;100036.06;6608846;27;35204;-80
2022/01/06 09:22:14;;;;;;;4.80;3.30;;;;;;;4.05;70.55;100030.03;6609193;27;33981;-80
2022/01/06 09:25:17;;;;;;;6.35;3.33;;;;;;;4.03;71.33;100053.28;6605201;27;34459;-80
2022/01/06 09:28:19;;;;;;;5.05;2.85;;;;;;;4.17;70.96;100036.84;6606618;27;34018;-81
2022/01/06 09:31:22;;;;;;;4.82;3.22;;;;;;;4.16;70.30;100040.50;6606260;27;34398;-81
2022/01/06 09:34:25;;;;;;;8.10;3.35;;;;;;;4.14;70.81;100038.97;6605750;27;33826;-80
2022/01/06 09:37:28;;;;;;;7.18;3.20;;;;;;;4.26;70.33;100029.81;6605741;27;34003;-80
2022/01/06 09:40:32;;;;;;;5.12;2.92;;;;;;;4.22;70.36;100031.94;6605044;27;34956;-81
2022/01/06 09:43:36;;;;;;;6.70;3.10;;;;;;;4.29;70.68;100033.03;6605025;27;34536;-80
2022/01/06 09:46:39;;;;;;;6.90;3.40;;;;;;;4.30;71.08;100025.91;6606189;27;34175;-80
2022/01/06 09:49:44;;;;;;;3.87;2.90;;;;;;;4.42;70.00;100027.37;6606947;27;34738;-80
2022/01/06 09:52:47;;;;;;;7.05;3.20;;;;;;;4.51;69.04;100028.31;6606398;27;33957;-81
2022/01/06 09:55:50;;;;;;;6.50;2.85;;;;;;;4.58;69.18;100031.22;6606205;27;34801;-80
2022/01/06 09:58:54;;;;;;;5.47;2.83;;;;;;;4.67;68.42;100031.19;6605902;27;34021;-80
2022/01/06 10:02:00;;;;;;;6.93;3.03;;;;;;;4.66;68.59;100026.84;6614024;27;35054;-79
2022/01/06 10:05:05;;;;;;;5.65;2.95;;;;;;;4.88;67.31;100030.06;6626225;27;34266;-79
2022/01/06 10:08:09;;;;;;;7.12;3.45;;;;;;;4.97;66.69;100030.03;6613624;27;34110;-80
2022/01/06 10:11:19;;;;;;;8.32;3.30;;;;;;;4.94;66.83;100025.00;6619848;27;34367;-81
2022/01/06 10:14:32;;;;;;;4.43;3.10;;;;;;;5.00;66.88;100042.22;6607528;27;35407;-80
2022/01/06 10:17:35;;;;;;;5.87;3.30;;;;;;;5.07;65.80;100023.78;6611522;27;33989;-80
2022/01/06 10:20:39;;;;;;;5.35;2.70;;;;;;;5.26;64.74;100047.66;6612340;27;34209;-81
2022/01/06 10:23:42;;;;;;;3.87;2.62;;;;;;;5.47;64.73;100044.72;6605799;27;34022;-80
2022/01/06 10:27:06;;;;;;;5.50;2.70;;;;;;;5.63;63.26;100038.66;6605300;27;34199;-80
2022/01/06 10:30:09;;;;;;;9.52;2.80;;;;;;;5.53;63.12;100052.09;6604031;27;33726;-81
2022/01/06 10:33:13;;;;;;;3.97;2.83;;;;;;;5.86;62.73;100058.53;6605096;27;35472;-81
2022/01/06 10:36:16;;;;;;;7.60;2.75;;;;;;;5.75;62.80;100063.28;6585323;27;34866;-81
2022/01/06 10:39:19;;;;;;;4.12;2.80;;;;;;;5.79;63.60;100060.16;6605397;27;33961;-81
2022/01/06 10:42:28;;;;;;;6.40;2.60;;;;;;;5.74;63.20;100064.28;6605829;27;33894;-81
2022/01/06 10:45:30;;;;;;;6.07;2.80;;;;;;;5.82;63.05;100080.38;6605687;27;33568;-81
2022/01/06 10:48:34;;;;;;;4.55;2.53;;;;;;;5.94;62.39;100081.84;6605401;27;33713;-80
2022/01/06 10:51:43;;;;;;;6.03;2.85;;;;;;;5.97;62.18;100080.69;6604071;27;34839;-80
2022/01/06 10:54:46;;;;;;;7.18;2.80;;;;;;;6.08;63.00;100070.59;6604612;27;33947;-80
2022/01/06 10:58:22;;;;;;;4.15;2.90;;;;;;;5.87;62.33;100078.06;6604111;27;33713;-80
2022/01/06 11:01:25;;;;;;;6.40;3.10;;;;;;;6.00;62.94;100077.72;6604845;26;33739;-80
2022/01/06 11:04:29;;;;;;;5.47;2.70;;;;;;;5.78;63.53;100081.69;6605011;27;34614;-80
2022/01/06 11:07:32;;;;;;;4.62;2.67;;;;;;;5.67;64.07;100075.59;6608221;27;34040;-80
2022/01/06 11:10:39;;;;;;;5.10;2.92;;;;;;;5.68;64.25;100077.25;6610913;27;35081;-80
2022/01/06 11:13:49;;;;;;;4.87;3.00;;;;;;;5.59;64.16;100075.53;6609721;27;34773;-79
2022/01/06 11:16:52;;;;;;;6.28;2.83;;;;;;;5.40;64.93;100063.16;6609098;27;34427;-80
2022/01/06 11:19:54;;;;;;;4.75;2.83;;;;;;;5.28;65.76;100077.72;6607488;27;33946;-79
2022/01/06 11:22:58;;;;;;;5.90;3.20;;;;;;;5.34;66.05;100073.59;6610168;27;33571;-79
2022/01/06 11:26:13;;;;;;;7.18;2.83;;;;;;;5.32;65.84;100073.75;6605707;27;34865;-79
2022/01/06 11:29:26;;;;;;;4.90;3.17;;;;;;;5.30;65.71;100088.25;6610700;27;35374;-79
2022/01/06 11:32:29;;;;;;;5.40;3.20;;;;;;;5.27;66.21;100091.22;6609237;27;34154;-79
2022/01/06 11:35:46;;;;;;;6.25;2.95;;;;;;;5.37;66.11;100100.81;6605939;27;33611;-80
2022/01/06 11:38:51;;;;;;;5.37;2.92;;;;;;;5.46;66.13;100104.41;6606414;27;34173;-80
2022/01/06 11:41:55;;;;;;;8.18;4.20;;;;;;;5.38;66.39;100099.84;6606091;27;35517;-80
2022/01/06 11:44:59;;;;;;;4.68;2.70;;;;;;;5.56;66.75;100099.84;6604841;27;35232;-80
2022/01/06 11:48:10;;;;;;;5.43;2.90;;;;;;;5.52;66.58;100097.63;6605205;27;35021;-80
2022/01/06 11:51:31;;;;;;;6.90;3.00;;;;;;;5.59;66.01;100106.72;6604038;27;36049;-80
2022/01/06 11:54:45;;;;;;;6.43;3.20;;;;;;;5.55;66.08;100108.00;6604769;27;35134;-80
2022/01/06 11:57:50;;;;;;;5.00;3.20;;;;;;;5.50;66.42;100115.63;6605144;27;35760;-80
2022/01/06 12:01:01;;;;;;;4.18;3.00;;;;;;;5.57;66.86;100104.19;6609229;26;34162;-80
2022/01/06 12:04:18;;;;;;;5.93;3.50;;;;;;;5.50;66.35;100102.28;6608786;27;35266;-79
2022/01/06 12:07:21;;;;;;;4.80;3.25;;;;;;;5.59;66.51;100109.41;6606194;27;34883;-81
2022/01/06 12:10:24;;;;;;;5.10;3.15;;;;;;;5.61;66.00;100105.56;6605735;27;33916;-81
2022/01/06 12:13:28;;;;;;;5.05;2.85;;;;;;;5.50;64.74;100097.81;6605209;27;33609;-81
2022/01/06 12:16:34;;;;;;;3.53;2.45;;;;;;;5.42;64.61;100098.53;6604872;27;34665;-80
2022/01/06 12:19:38;;;;;;;5.62;3.30;;;;;;;5.57;64.69;100104.19;6606181;27;34088;-80
2022/01/06 12:22:42;;;;;;;5.32;2.80;;;;;;;5.61;64.46;100102.06;6604821;27;33900;-80
2022/01/06 12:26:03;;;;;;;3.90;2.70;;;;;;;5.77;64.20;100106.72;6605815;27;34049;-81
2022/01/06 12:29:15;;;;;;;4.57;2.83;;;;;;;5.81;62.85;100108.09;6605904;27;33982;-80
2022/01/06 12:32:18;;;;;;;4.65;3.20;;;;;;;5.91;63.21;100112.34;6605876;27;34664;-80
2022/01/06 12:35:36;;;;;;;7.07;3.45;;;;;;;6.08;62.56;100121.38;6606644;27;34075;-84
2022/01/06 12:38:40;;;;;;;4.45;3.47;;;;;;;6.32;62.94;100131.41;6606530;27;34886;-81
2022/01/06 12:41:45;;;;;;;4.53;2.87;;;;;;;6.51;60.71;100134.88;6606663;27;34338;-81
2022/01/06 12:44:48;;;;;;;5.93;3.22;;;;;;;6.66;61.40;100140.47;6606241;27;34386;-81
2022/01/06 12:47:54;;;;;;;3.72;2.45;;;;;;;7.32;59.84;100138.94;6606131;27;34562;-80
2022/01/06 12:50:57;;;;;;;6.55;3.40;;;;;;;7.80;56.33;100140.03;6607059;27;34823;-80
2022/01/06 12:54:09;;;;;;;9.02;3.33;;;;;;;7.80;56.68;100151.59;6605989;27;34061;-79
2022/01/06 12:57:13;;;;;;;3.85;2.60;;;;;;;8.17;55.21;100152.97;6607202;27;33899;-79
2022/01/06 13:00:18;;;;;;;5.30;2.90;;;;;;;7.90;55.35;100157.66;6611296;26;33933;-80
2022/01/06 13:03:35;;;;;;;7.07;3.30;;;;;;;7.68;56.22;100155.59;6607732;27;34206;-79
2022/01/06 13:06:40;;;;;;;5.75;3.00;;;;;;;7.09;58.32;100160.09;6612775;27;34807;-79
2022/01/06 13:09:43;;;;;;;4.22;2.90;;;;;;;6.68;59.46;100158.03;6613682;27;33732;-81
2022/01/06 13:12:46;;;;;;;4.12;2.80;;;;;;;6.43;60.66;100159.72;6609372;27;34558;-81
2022/01/06 13:15:49;;;;;;;5.47;2.80;;;;;;;6.37;60.80;100177.22;6620490;27;34333;-82
2022/01/06 13:18:57;;;;;;;8.35;3.10;;;;;;;6.37;61.49;100176.37;6622474;27;33760;-81
2022/01/06 13:22:04;;;;;;;3.65;2.80;;;;;;;6.31;61.66;100171.66;6627481;27;34799;-81
2022/01/06 13:25:09;;;;;;;6.00;2.92;;;;;;;6.24;61.72;100170.62;6617896;27;34275;-80
2022/01/06 13:28:16;;;;;;;6.40;3.20;;;;;;;6.15;62.23;100174.22;6611645;27;33737;-80
2022/01/06 13:31:23;;;;;;;7.53;3.53;;;;;;;6.29;61.97;100176.34;6607090;27;35893;-81
2022/01/06 13:34:26;;;;;;;6.40;3.15;;;;;;;6.12;61.57;100178.88;6606717;27;33691;-80
2022/01/06 13:37:30;;;;;;;6.18;3.05;;;;;;;6.18;62.01;100179.25;6606943;27;33902;-80
2022/01/06 13:40:44;;;;;;;7.72;3.35;;;;;;;6.24;61.51;100179.47;6614574;27;35026;-80
2022/01/06 13:43:56;;;;;;;3.78;2.80;;;;;;;6.16;62.39;100179.37;6606139;27;34038;-80
2022/01/06 13:47:12;;;;;;;6.82;2.70;;;;;;;6.00;61.21;100182.78;6605533;27;33926;-80
2022/01/06 13:53:53;;;;;;;5.53;2.95;;;;;;;5.77;62.03;100198.38;6604756;27;33913;-80
2022/01/06 13:57:09;;;;;;;4.43;2.67;;;;;;;5.85;62.27;100197.59;6605012;27;34568;-80
2022/01/06 14:00:15;;;;;;;8.00;3.50;;;;;;;5.77;61.86;100209.06;6605371;27;35285;-80
2022/01/06 14:03:19;;;;;;;5.80;2.95;;;;;;;5.68;62.31;100210.81;6605867;27;34860;-80
2022/01/06 14:06:23;;;;;;;4.60;2.65;;;;;;;5.38;62.49;100216.44;6606765;27;33553;-80
2022/01/06 14:09:26;;;;;;;4.43;3.05;;;;;;;5.36;62.98;100221.94;6606066;27;34788;-80
2022/01/06 14:12:28;;;;;;;6.85;2.55;;;;;;;5.33;63.75;100227.59;6605255;27;33786;-80
2022/01/06 14:15:31;;;;;;;5.28;3.00;;;;;;;5.23;63.08;100234.78;6605908;27;34103;-80
2022/01/06 14:18:34;;;;;;;5.72;2.67;;;;;;;5.19;62.53;100239.56;6605759;27;34449;-80
2022/01/06 14:21:37;;;;;;;6.15;2.67;;;;;;;5.22;63.03;100244.63;6605958;27;34006;-80
2022/01/06 14:24:39;;;;;;;6.05;2.47;;;;;;;5.27;62.68;100244.19;6605551;27;34931;-80
2022/01/06 14:27:43;;;;;;;4.57;2.45;;;;;;;5.26;61.83;100241.66;6605790;27;33502;-80
2022/01/06 14:30:46;;;;;;;4.78;2.65;;;;;;;5.31;61.82;100248.25;6605773;27;34093;-80
2022/01/06 14:33:50;;;;;;;5.20;3.03;;;;;;;5.28;62.72;100258.38;6605543;27;33935;-80
2022/01/06 14:36:53;;;;;;;4.68;2.60;;;;;;;5.30;63.72;100259.06;6606118;27;34209;-81
2022/01/06 14:39:56;;;;;;;6.32;2.65;;;;;;;5.23;63.43;100254.31;6609111;27;34522;-81
2022/01/06 14:43:00;;;;;;;4.60;2.70;;;;;;;5.16;64.27;100269.22;6611935;27;34067;-81
2022/01/06 14:46:02;;;;;;;3.37;2.40;;;;;;;5.19;62.95;100268.94;6611315;27;35283;-81
2022/01/06 14:49:05;;;;;;;3.22;2.30;;;;;;;5.23;62.15;100267.69;6609261;27;35517;-80
2022/01/06 14:52:08;;;;;;;5.65;2.87;;;;;;;5.17;63.08;100273.56;6606119;27;35308;-81
2022/01/06 14:55:12;;;;;;;2.70;2.42;;;;;;;5.12;62.74;100275.84;6605828;27;34038;-81
2022/01/06 14:58:15;;;;;;;4.57;3.17;;;;;;;5.28;62.60;100277.06;6606260;27;34982;-81
2022/01/06 15:01:18;;;;;;;3.85;2.53;;;;;;;5.23;63.10;100280.16;6606911;27;33967;-81
2022/01/06 15:04:21;;;;;;;4.28;2.03;;;;;;;5.32;63.19;100291.78;6605823;27;33933;-81
2022/01/06 15:07:24;;;;;;;3.72;2.35;;;;;;;5.22;63.21;100292.66;6606271;27;34780;-82
2022/01/06 15:10:27;;;;;;;4.95;2.58;;;;;;;5.29;63.84;100284.91;6607480;27;34804;-83
2022/01/06 15:13:30;;;;;;;5.62;2.60;;;;;;;5.28;64.06;100298.41;6608015;27;33718;-82
2022/01/06 15:16:34;;;;;;;5.60;2.80;;;;;;;5.26;63.96;100300.38;6606729;27;33698;-82
2022/01/06 15:19:37;;;;;;;4.22;2.75;;;;;;;5.00;65.21;100295.66;6607214;27;34475;-82
2022/01/06 15:22:40;;;;;;;2.95;2.22;;;;;;;4.91;65.85;100301.87;6607354;27;34481;-82
2022/01/06 15:25:43;;;;;;;8.32;2.83;;;;;;;4.84;66.02;100306.09;6616435;27;33922;-81
2022/01/06 15:28:46;;;;;;;4.75;2.60;;;;;;;4.81;66.09;100301.06;6625353;27;34439;-83
2022/01/06 15:31:49;;;;;;;3.65;2.50;;;;;;;4.78;66.53;100310.19;6624526;27;33709;-83
2022/01/06 15:34:52;;;;;;;4.62;2.30;;;;;;;4.81;66.11;100317.06;6625274;27;35188;-82
2022/01/06 15:37:55;;;;;;;4.32;2.60;;;;;;;4.68;66.43;100312.84;6624902;27;35311;-82
2022/01/06 15:40:58;;;;;;;2.60;2.40;;;;;;;4.81;66.36;100330.38;6620314;27;34363;-79
2022/01/06 15:44:01;;;;;;;4.28;2.42;;;;;;;4.71;66.50;100322.37;6606098;27;34754;-79
2022/01/06 15:47:04;;;;;;;3.85;2.50;;;;;;;4.54;66.25;100332.78;6605604;27;34458;-79
2022/01/06 15:50:07;;;;;;;2.55;2.33;;;;;;;4.53;66.34;100343.56;6605162;27;34029;-79
2022/01/06 15:53:10;;;;;;;3.15;2.37;;;;;;;4.47;66.43;100338.78;6606488;27;33732;-79
2022/01/06 15:56:13;;;;;;;3.67;2.50;;;;;;;4.40;66.57;100349.19;6605491;27;33779;-81
2022/01/06 15:59:20;;;;;;;5.12;2.47;;;;;;;4.31;66.46;100358.00;6605484;27;34052;-81
2022/01/06 16:05:46;;;;;;;3.05;2.65;;;;;;;4.21;66.97;100368.66;6621915;26;34251;-79
2022/01/06 16:08:52;;;;;;;4.75;2.78;;;;;;;4.11;67.08;100380.28;6615374;27;35453;-80
2022/01/06 16:11:54;;;;;;;3.08;2.45;;;;;;;4.11;67.09;100385.59;6605016;27;34025;-79
2022/01/06 16:14:57;;;;;;;3.75;2.28;;;;;;;4.12;66.63;100382.78;6604972;27;34132;-80
2022/01/06 16:18:00;;;;;;;3.85;2.60;;;;;;;4.14;65.24;100395.97;6605047;27;34675;-80
2022/01/06 16:21:03;;;;;;;3.92;2.30;;;;;;;4.02;65.20;100411.22;6604667;27;35172;-79
2022/01/06 16:24:06;;;;;;;2.80;2.35;;;;;;;3.96;64.92;100414.44;6604659;27;33684;-79
2022/01/06 16:27:10;;;;;;;2.12;1.98;;;;;;;3.93;64.71;100425.34;6605319;27;35203;-80
2022/01/06 16:30:24;;;;;;;4.95;2.25;;;;;;;3.98;64.52;100412.44;6605334;27;33560;-80
2022/01/06 16:33:27;;;;;;;5.72;2.58;;;;;;;3.79;63.44;100424.72;6606110;27;33992;-80
2022/01/06 16:36:30;;;;;;;2.70;2.40;;;;;;;3.60;63.76;100436.13;6612983;27;34025;-80
2022/01/06 16:39:33;;;;;;;4.80;2.62;;;;;;;3.51;63.11;100423.63;6607086;27;34210;-80
2022/01/06 16:42:36;;;;;;;4.75;2.75;;;;;;;3.38;63.42;100442.41;6605071;27;35885;-80
2022/01/06 16:45:39;;;;;;;2.62;2.40;;;;;;;3.34;63.41;100441.00;6605192;27;34660;-80
2022/01/06 16:48:48;;;;;;;3.35;2.85;;;;;;;3.25;63.79;100443.59;6604949;27;33510;-80
2022/01/06 16:51:50;;;;;;;4.75;2.80;;;;;;;3.17;64.23;100446.91;6604947;27;34200;-80
